aviador You're here:

LTCJ Decoded Metar

BATMAN in TURKEY
Report Time2017-06-25 01:20:00
UTC Time2017-06-25 02:04:20
Flight Rules vfr VFR
Wind020° at 02 kt
W.Decomp.*RWY 02: 2.0 kt HW 0.1 kt LCW
W.Rank020° ranks 2
Current wind is below 020° avg. (5.4)
Visibility9999 m
Phenomena:N/A
Clouds:N/A
Expected CloudBase > 1,600 ft AGL from Temp-Dew spread
CeilingNone
Temp16°C (ISA +5)
Dew Point12°C (77% RH)
AAT15.9°C
QNH1008 hPa
Density Alt2,667 ft
Elevation1,772 ft
Report Wrong Elevation
Raw Report
LTCJ 250120Z 02002KT CAVOK 16/12 Q1008=

Extra information for LTCJ:More info

Metar Taf Metar & Taf Last 4 Metars F.Rules Stats Wind Profile Meteogram Temp Stats Airport Information Weather charts Add Link Nearby VenuesMetar ALERT Operation Metar Decoded Social comments